sensor_id;sensor_type;location;lat;lon;timestamp;P1;durP1;ratioP1;P2;durP2;ratioP2
51612;SDS011;37694;51.748;14.326;2023-06-26T00:01:31;5.85;;;5.20;;
51612;SDS011;37694;51.748;14.326;2023-06-26T00:04:00;5.97;;;5.30;;
51612;SDS011;37694;51.748;14.326;2023-06-26T00:06:26;8.50;;;5.43;;
51612;SDS011;37694;51.748;14.326;2023-06-26T00:08:53;6.07;;;5.47;;
51612;SDS011;37694;51.748;14.326;2023-06-26T00:11:19;5.60;;;5.00;;
51612;SDS011;37694;51.748;14.326;2023-06-26T00:13:45;6.30;;;5.70;;
51612;SDS011;37694;51.748;14.326;2023-06-26T00:16:11;6.68;;;5.82;;
51612;SDS011;37694;51.748;14.326;2023-06-26T00:18:37;7.90;;;5.75;;
51612;SDS011;37694;51.748;14.326;2023-06-26T00:21:02;7.70;;;6.18;;
51612;SDS011;37694;51.748;14.326;2023-06-26T00:23:28;5.55;;;4.95;;
51612;SDS011;37694;51.748;14.326;2023-06-26T00:25:55;7.90;;;5.40;;
51612;SDS011;37694;51.748;14.326;2023-06-26T00:28:21;6.28;;;5.03;;
51612;SDS011;37694;51.748;14.326;2023-06-26T00:30:47;5.93;;;5.32;;
51612;SDS011;37694;51.748;14.326;2023-06-26T00:33:13;6.75;;;5.57;;
51612;SDS011;37694;51.748;14.326;2023-06-26T00:35:38;7.25;;;5.60;;
51612;SDS011;37694;51.748;14.326;2023-06-26T00:38:04;5.78;;;5.28;;
51612;SDS011;37694;51.748;14.326;2023-06-26T00:40:30;7.88;;;5.78;;
51612;SDS011;37694;51.748;14.326;2023-06-26T00:42:55;6.35;;;5.20;;
51612;SDS011;37694;51.748;14.326;2023-06-26T00:45:21;7.65;;;5.88;;
51612;SDS011;37694;51.748;14.326;2023-06-26T00:47:46;6.85;;;5.80;;
51612;SDS011;37694;51.748;14.326;2023-06-26T00:50:13;6.72;;;6.03;;
51612;SDS011;37694;51.748;14.326;2023-06-26T00:52:40;6.30;;;5.45;;
51612;SDS011;37694;51.748;14.326;2023-06-26T00:55:06;7.30;;;6.40;;
51612;SDS011;37694;51.748;14.326;2023-06-26T00:57:32;6.40;;;5.80;;
51612;SDS011;37694;51.748;14.326;2023-06-26T00:59:58;6.45;;;5.85;;
51612;SDS011;37694;51.748;14.326;2023-06-26T01:02:26;6.85;;;6.15;;
51612;SDS011;37694;51.748;14.326;2023-06-26T01:04:58;6.18;;;5.57;;
51612;SDS011;37694;51.748;14.326;2023-06-26T01:07:31;6.57;;;5.97;;
51612;SDS011;37694;51.748;14.326;2023-06-26T01:10:02;6.63;;;5.72;;
51612;SDS011;37694;51.748;14.326;2023-06-26T01:12:29;6.90;;;5.07;;
51612;SDS011;37694;51.748;14.326;2023-06-26T01:14:57;6.30;;;5.78;;
51612;SDS011;37694;51.748;14.326;2023-06-26T01:17:23;5.63;;;4.95;;
51612;SDS011;37694;51.748;14.326;2023-06-26T01:19:49;6.13;;;5.53;;
51612;SDS011;37694;51.748;14.326;2023-06-26T01:22:25;6.43;;;5.70;;
51612;SDS011;37694;51.748;14.326;2023-06-26T01:27:50;6.65;;;5.85;;
51612;SDS011;37694;51.748;14.326;2023-06-26T01:30:19;5.03;;;4.53;;
51612;SDS011;37694;51.748;14.326;2023-06-26T01:32:45;6.63;;;5.65;;
51612;SDS011;37694;51.748;14.326;2023-06-26T01:35:12;6.80;;;5.65;;
51612;SDS011;37694;51.748;14.326;2023-06-26T01:37:38;6.57;;;5.60;;
51612;SDS011;37694;51.748;14.326;2023-06-26T01:40:04;6.68;;;5.78;;
51612;SDS011;37694;51.748;14.326;2023-06-26T01:42:31;6.13;;;5.43;;
51612;SDS011;37694;51.748;14.326;2023-06-26T01:44:57;6.32;;;5.68;;
51612;SDS011;37694;51.748;14.326;2023-06-26T01:47:30;5.70;;;5.17;;
51612;SDS011;37694;51.748;14.326;2023-06-26T01:50:05;7.13;;;5.65;;
51612;SDS011;37694;51.748;14.326;2023-06-26T01:57:41;6.30;;;5.70;;
51612;SDS011;37694;51.748;14.326;2023-06-26T02:00:09;8.10;;;5.82;;
51612;SDS011;37694;51.748;14.326;2023-06-26T02:02:36;5.88;;;5.28;;
51612;SDS011;37694;51.748;14.326;2023-06-26T02:05:02;5.50;;;4.95;;
51612;SDS011;37694;51.748;14.326;2023-06-26T02:07:27;6.25;;;5.65;;
51612;SDS011;37694;51.748;14.326;2023-06-26T02:09:53;5.38;;;4.85;;
51612;SDS011;37694;51.748;14.326;2023-06-26T02:12:20;5.40;;;4.95;;
51612;SDS011;37694;51.748;14.326;2023-06-26T02:14:45;5.20;;;4.70;;
51612;SDS011;37694;51.748;14.326;2023-06-26T02:17:11;6.88;;;5.20;;
51612;SDS011;37694;51.748;14.326;2023-06-26T02:19:37;5.78;;;5.18;;
51612;SDS011;37694;51.748;14.326;2023-06-26T02:22:10;6.10;;;5.43;;
51612;SDS011;37694;51.748;14.326;2023-06-26T02:24:35;6.22;;;5.40;;
51612;SDS011;37694;51.748;14.326;2023-06-26T02:27:01;6.15;;;5.15;;
51612;SDS011;37694;51.748;14.326;2023-06-26T02:29:27;5.68;;;5.18;;
51612;SDS011;37694;51.748;14.326;2023-06-26T02:31:53;5.80;;;5.20;;
51612;SDS011;37694;51.748;14.326;2023-06-26T02:34:18;5.32;;;4.82;;
51612;SDS011;37694;51.748;14.326;2023-06-26T02:36:44;5.38;;;4.88;;
51612;SDS011;37694;51.748;14.326;2023-06-26T02:39:10;5.72;;;4.90;;
51612;SDS011;37694;51.748;14.326;2023-06-26T02:41:36;5.22;;;4.72;;
51612;SDS011;37694;51.748;14.326;2023-06-26T02:44:01;4.95;;;4.45;;
51612;SDS011;37694;51.748;14.326;2023-06-26T02:46:27;4.60;;;4.13;;
51612;SDS011;37694;51.748;14.326;2023-06-26T02:48:53;6.63;;;5.07;;
51612;SDS011;37694;51.748;14.326;2023-06-26T02:51:18;6.63;;;5.00;;
51612;SDS011;37694;51.748;14.326;2023-06-26T02:53:44;4.72;;;4.32;;
51612;SDS011;37694;51.748;14.326;2023-06-26T02:56:09;5.22;;;4.72;;
51612;SDS011;37694;51.748;14.326;2023-06-26T02:58:35;6.88;;;5.25;;
51612;SDS011;37694;51.748;14.326;2023-06-26T03:01:01;5.13;;;4.63;;
51612;SDS011;37694;51.748;14.326;2023-06-26T03:03:26;5.00;;;4.50;;
51612;SDS011;37694;51.748;14.326;2023-06-26T03:05:52;5.22;;;4.72;;
51612;SDS011;37694;51.748;14.326;2023-06-26T03:08:17;5.30;;;4.65;;
51612;SDS011;37694;51.748;14.326;2023-06-26T03:10:43;5.00;;;4.50;;
51612;SDS011;37694;51.748;14.326;2023-06-26T03:13:09;4.70;;;4.30;;
51612;SDS011;37694;51.748;14.326;2023-06-26T03:15:34;5.05;;;4.60;;
51612;SDS011;37694;51.748;14.326;2023-06-26T03:18:00;5.10;;;4.70;;
51612;SDS011;37694;51.748;14.326;2023-06-26T03:20:26;5.85;;;5.32;;
51612;SDS011;37694;51.748;14.326;2023-06-26T03:22:52;4.53;;;4.13;;
51612;SDS011;37694;51.748;14.326;2023-06-26T03:25:17;5.00;;;4.50;;
51612;SDS011;37694;51.748;14.326;2023-06-26T03:27:44;4.88;;;4.47;;
51612;SDS011;37694;51.748;14.326;2023-06-26T03:30:09;4.97;;;4.47;;
51612;SDS011;37694;51.748;14.326;2023-06-26T03:32:36;4.60;;;4.20;;
51612;SDS011;37694;51.748;14.326;2023-06-26T03:35:01;5.75;;;4.32;;
51612;SDS011;37694;51.748;14.326;2023-06-26T03:37:28;4.95;;;4.45;;
51612;SDS011;37694;51.748;14.326;2023-06-26T03:39:54;4.60;;;4.20;;
51612;SDS011;37694;51.748;14.326;2023-06-26T03:42:19;5.25;;;4.38;;
51612;SDS011;37694;51.748;14.326;2023-06-26T03:44:45;5.10;;;4.60;;
51612;SDS011;37694;51.748;14.326;2023-06-26T03:47:10;4.72;;;4.32;;
51612;SDS011;37694;51.748;14.326;2023-06-26T03:49:36;4.47;;;4.07;;
51612;SDS011;37694;51.748;14.326;2023-06-26T03:52:02;5.38;;;4.88;;
51612;SDS011;37694;51.748;14.326;2023-06-26T03:54:28;5.43;;;4.68;;
51612;SDS011;37694;51.748;14.326;2023-06-26T03:56:53;5.10;;;4.60;;
51612;SDS011;37694;51.748;14.326;2023-06-26T03:59:19;4.82;;;4.35;;
51612;SDS011;37694;51.748;14.326;2023-06-26T04:01:44;4.60;;;4.20;;
51612;SDS011;37694;51.748;14.326;2023-06-26T04:04:10;4.45;;;3.97;;
51612;SDS011;37694;51.748;14.326;2023-06-26T04:06:36;4.78;;;4.30;;
51612;SDS011;37694;51.748;14.326;2023-06-26T04:09:01;4.18;;;3.78;;
51612;SDS011;37694;51.748;14.326;2023-06-26T04:11:27;5.60;;;4.05;;
51612;SDS011;37694;51.748;14.326;2023-06-26T04:13:53;5.50;;;4.50;;
51612;SDS011;37694;51.748;14.326;2023-06-26T04:16:19;7.00;;;4.40;;
51612;SDS011;37694;51.748;14.326;2023-06-26T04:18:45;4.18;;;3.78;;
51612;SDS011;37694;51.748;14.326;2023-06-26T04:21:12;4.15;;;3.83;;
51612;SDS011;37694;51.748;14.326;2023-06-26T04:23:38;3.80;;;3.50;;
51612;SDS011;37694;51.748;14.326;2023-06-26T04:26:05;4.32;;;3.92;;
51612;SDS011;37694;51.748;14.326;2023-06-26T04:28:32;4.20;;;3.90;;
51612;SDS011;37694;51.748;14.326;2023-06-26T04:30:59;4.13;;;3.67;;
51612;SDS011;37694;51.748;14.326;2023-06-26T04:33:25;4.50;;;4.10;;
51612;SDS011;37694;51.748;14.326;2023-06-26T04:35:51;8.88;;;4.10;;
51612;SDS011;37694;51.748;14.326;2023-06-26T04:38:18;4.60;;;3.88;;
51612;SDS011;37694;51.748;14.326;2023-06-26T04:40:44;5.63;;;3.60;;
51612;SDS011;37694;51.748;14.326;2023-06-26T04:43:10;3.90;;;3.50;;
51612;SDS011;37694;51.748;14.326;2023-06-26T04:45:35;6.53;;;3.42;;
51612;SDS011;37694;51.748;14.326;2023-06-26T04:48:02;4.70;;;4.30;;
51612;SDS011;37694;51.748;14.326;2023-06-26T04:50:28;8.98;;;3.70;;
51612;SDS011;37694;51.748;14.326;2023-06-26T04:52:55;4.50;;;4.10;;
51612;SDS011;37694;51.748;14.326;2023-06-26T04:55:21;5.97;;;4.70;;
51612;SDS011;37694;51.748;14.326;2023-06-26T04:57:49;8.02;;;4.88;;
51612;SDS011;37694;51.748;14.326;2023-06-26T05:00:14;4.68;;;4.28;;
51612;SDS011;37694;51.748;14.326;2023-06-26T05:02:40;4.15;;;3.75;;
51612;SDS011;37694;51.748;14.326;2023-06-26T05:05:06;5.25;;;4.25;;
51612;SDS011;37694;51.748;14.326;2023-06-26T05:07:32;4.60;;;4.13;;
51612;SDS011;37694;51.748;14.326;2023-06-26T05:09:58;4.80;;;4.13;;
51612;SDS011;37694;51.748;14.326;2023-06-26T05:12:24;6.03;;;4.78;;
51612;SDS011;37694;51.748;14.326;2023-06-26T05:14:49;6.50;;;4.32;;
51612;SDS011;37694;51.748;14.326;2023-06-26T05:17:15;5.53;;;4.97;;
51612;SDS011;37694;51.748;14.326;2023-06-26T05:19:41;10.90;;;5.28;;
51612;SDS011;37694;51.748;14.326;2023-06-26T05:22:07;8.23;;;5.03;;
51612;SDS011;37694;51.748;14.326;2023-06-26T05:24:36;9.82;;;5.07;;
51612;SDS011;37694;51.748;14.326;2023-06-26T05:27:03;10.52;;;4.97;;
51612;SDS011;37694;51.748;14.326;2023-06-26T05:29:32;10.00;;;5.00;;
51612;SDS011;37694;51.748;14.326;2023-06-26T05:31:58;9.95;;;5.65;;
51612;SDS011;37694;51.748;14.326;2023-06-26T05:34:25;12.95;;;5.10;;
51612;SDS011;37694;51.748;14.326;2023-06-26T05:36:57;14.57;;;5.38;;
51612;SDS011;37694;51.748;14.326;2023-06-26T05:39:24;10.95;;;5.43;;
51612;SDS011;37694;51.748;14.326;2023-06-26T05:41:50;12.63;;;5.30;;
51612;SDS011;37694;51.748;14.326;2023-06-26T05:44:16;16.30;;;6.10;;
51612;SDS011;37694;51.748;14.326;2023-06-26T05:46:43;18.38;;;5.47;;
51612;SDS011;37694;51.748;14.326;2023-06-26T05:49:09;18.90;;;5.07;;
51612;SDS011;37694;51.748;14.326;2023-06-26T05:51:34;26.08;;;5.30;;
51612;SDS011;37694;51.748;14.326;2023-06-26T05:54:01;20.65;;;5.57;;
51612;SDS011;37694;51.748;14.326;2023-06-26T05:56:27;25.58;;;5.32;;
51612;SDS011;37694;51.748;14.326;2023-06-26T05:58:53;45.45;;;7.75;;
51612;SDS011;37694;51.748;14.326;2023-06-26T06:01:19;46.25;;;8.60;;
51612;SDS011;37694;51.748;14.326;2023-06-26T06:03:45;54.45;;;11.07;;
51612;SDS011;37694;51.748;14.326;2023-06-26T06:06:11;67.35;;;11.00;;
51612;SDS011;37694;51.748;14.326;2023-06-26T06:08:36;54.22;;;9.27;;
51612;SDS011;37694;51.748;14.326;2023-06-26T06:11:02;59.10;;;11.48;;
51612;SDS011;37694;51.748;14.326;2023-06-26T06:13:28;50.78;;;8.18;;
51612;SDS011;37694;51.748;14.326;2023-06-26T06:15:53;41.65;;;9.88;;
51612;SDS011;37694;51.748;14.326;2023-06-26T06:18:20;37.15;;;9.63;;
51612;SDS011;37694;51.748;14.326;2023-06-26T06:20:46;34.20;;;9.27;;
51612;SDS011;37694;51.748;14.326;2023-06-26T06:23:12;31.50;;;9.00;;
51612;SDS011;37694;51.748;14.326;2023-06-26T06:25:37;36.65;;;8.07;;
51612;SDS011;37694;51.748;14.326;2023-06-26T06:28:04;33.47;;;8.85;;
51612;SDS011;37694;51.748;14.326;2023-06-26T06:30:29;42.08;;;8.88;;
51612;SDS011;37694;51.748;14.326;2023-06-26T06:32:55;34.00;;;8.63;;
51612;SDS011;37694;51.748;14.326;2023-06-26T06:35:21;26.70;;;8.18;;
51612;SDS011;37694;51.748;14.326;2023-06-26T06:37:47;26.42;;;8.02;;
51612;SDS011;37694;51.748;14.326;2023-06-26T06:40:14;32.92;;;8.40;;
51612;SDS011;37694;51.748;14.326;2023-06-26T06:42:40;33.42;;;8.43;;
51612;SDS011;37694;51.748;14.326;2023-06-26T06:45:06;27.67;;;7.95;;
51612;SDS011;37694;51.748;14.326;2023-06-26T06:47:32;19.92;;;6.30;;
51612;SDS011;37694;51.748;14.326;2023-06-26T06:49:58;31.48;;;8.93;;
51612;SDS011;37694;51.748;14.326;2023-06-26T06:52:26;31.52;;;9.05;;
51612;SDS011;37694;51.748;14.326;2023-06-26T06:54:56;30.70;;;8.07;;
51612;SDS011;37694;51.748;14.326;2023-06-26T06:57:30;21.40;;;7.85;;
51612;SDS011;37694;51.748;14.326;2023-06-26T06:59:56;19.73;;;7.00;;
51612;SDS011;37694;51.748;14.326;2023-06-26T07:02:22;19.00;;;7.32;;
51612;SDS011;37694;51.748;14.326;2023-06-26T07:04:47;28.90;;;7.88;;
51612;SDS011;37694;51.748;14.326;2023-06-26T07:07:13;19.20;;;8.32;;
51612;SDS011;37694;51.748;14.326;2023-06-26T07:09:39;18.60;;;7.60;;
51612;SDS011;37694;51.748;14.326;2023-06-26T07:12:04;18.05;;;7.03;;
51612;SDS011;37694;51.748;14.326;2023-06-26T07:14:30;18.98;;;7.30;;
51612;SDS011;37694;51.748;14.326;2023-06-26T07:16:56;18.98;;;7.10;;
51612;SDS011;37694;51.748;14.326;2023-06-26T07:19:22;22.50;;;7.10;;
51612;SDS011;37694;51.748;14.326;2023-06-26T07:21:47;22.38;;;8.48;;
51612;SDS011;37694;51.748;14.326;2023-06-26T07:24:13;23.05;;;8.57;;
51612;SDS011;37694;51.748;14.326;2023-06-26T07:26:39;16.40;;;7.60;;
51612;SDS011;37694;51.748;14.326;2023-06-26T07:29:04;16.45;;;7.15;;
51612;SDS011;37694;51.748;14.326;2023-06-26T07:31:30;17.80;;;7.05;;
51612;SDS011;37694;51.748;14.326;2023-06-26T07:33:56;16.17;;;7.82;;
51612;SDS011;37694;51.748;14.326;2023-06-26T07:36:21;26.90;;;7.45;;
51612;SDS011;37694;51.748;14.326;2023-06-26T07:38:47;23.00;;;7.95;;
51612;SDS011;37694;51.748;14.326;2023-06-26T07:41:13;17.00;;;6.82;;
51612;SDS011;37694;51.748;14.326;2023-06-26T07:43:39;13.70;;;6.30;;
51612;SDS011;37694;51.748;14.326;2023-06-26T07:46:04;14.35;;;7.47;;
51612;SDS011;37694;51.748;14.326;2023-06-26T07:48:30;17.80;;;7.55;;
51612;SDS011;37694;51.748;14.326;2023-06-26T07:50:56;17.60;;;6.63;;
51612;SDS011;37694;51.748;14.326;2023-06-26T07:53:21;13.10;;;6.38;;
51612;SDS011;37694;51.748;14.326;2023-06-26T07:55:47;21.30;;;7.03;;
51612;SDS011;37694;51.748;14.326;2023-06-26T07:58:12;15.00;;;7.40;;
51612;SDS011;37694;51.748;14.326;2023-06-26T08:00:38;10.95;;;5.93;;
51612;SDS011;37694;51.748;14.326;2023-06-26T08:03:04;18.42;;;7.43;;
51612;SDS011;37694;51.748;14.326;2023-06-26T08:05:30;11.93;;;6.43;;
51612;SDS011;37694;51.748;14.326;2023-06-26T08:07:56;19.55;;;7.03;;
51612;SDS011;37694;51.748;14.326;2023-06-26T08:10:22;11.15;;;5.90;;
51612;SDS011;37694;51.748;14.326;2023-06-26T08:12:47;13.70;;;6.65;;
51612;SDS011;37694;51.748;14.326;2023-06-26T08:15:15;13.40;;;6.30;;
51612;SDS011;37694;51.748;14.326;2023-06-26T08:17:41;11.68;;;6.20;;
51612;SDS011;37694;51.748;14.326;2023-06-26T08:20:07;13.07;;;6.28;;
51612;SDS011;37694;51.748;14.326;2023-06-26T08:22:33;12.65;;;6.43;;
51612;SDS011;37694;51.748;14.326;2023-06-26T08:24:59;11.57;;;6.07;;
51612;SDS011;37694;51.748;14.326;2023-06-26T08:27:25;10.10;;;5.72;;
51612;SDS011;37694;51.748;14.326;2023-06-26T08:29:50;15.52;;;6.03;;
51612;SDS011;37694;51.748;14.326;2023-06-26T08:32:16;9.48;;;6.07;;
51612;SDS011;37694;51.748;14.326;2023-06-26T08:34:42;9.60;;;5.57;;
51612;SDS011;37694;51.748;14.326;2023-06-26T08:37:08;11.05;;;6.30;;
51612;SDS011;37694;51.748;14.326;2023-06-26T08:39:36;13.30;;;6.05;;
51612;SDS011;37694;51.748;14.326;2023-06-26T08:42:01;15.90;;;6.07;;
51612;SDS011;37694;51.748;14.326;2023-06-26T08:44:27;10.32;;;5.18;;
51612;SDS011;37694;51.748;14.326;2023-06-26T08:46:53;8.35;;;5.85;;
51612;SDS011;37694;51.748;14.326;2023-06-26T08:49:25;9.88;;;6.28;;
51612;SDS011;37694;51.748;14.326;2023-06-26T08:52:30;13.25;;;6.30;;
51612;SDS011;37694;51.748;14.326;2023-06-26T08:54:59;9.10;;;5.32;;
51612;SDS011;37694;51.748;14.326;2023-06-26T08:57:26;9.77;;;5.57;;
51612;SDS011;37694;51.748;14.326;2023-06-26T08:59:55;11.07;;;5.80;;
51612;SDS011;37694;51.748;14.326;2023-06-26T09:02:22;11.80;;;5.82;;
51612;SDS011;37694;51.748;14.326;2023-06-26T09:04:48;10.52;;;5.78;;
51612;SDS011;37694;51.748;14.326;2023-06-26T09:07:14;12.38;;;7.13;;
51612;SDS011;37694;51.748;14.326;2023-06-26T09:09:40;8.88;;;5.72;;
51612;SDS011;37694;51.748;14.326;2023-06-26T09:12:06;8.52;;;5.05;;
51612;SDS011;37694;51.748;14.326;2023-06-26T09:14:33;8.43;;;5.15;;
51612;SDS011;37694;51.748;14.326;2023-06-26T09:16:59;9.88;;;5.50;;
51612;SDS011;37694;51.748;14.326;2023-06-26T09:19:25;8.07;;;5.15;;
51612;SDS011;37694;51.748;14.326;2023-06-26T09:21:51;9.02;;;5.22;;
51612;SDS011;37694;51.748;14.326;2023-06-26T09:24:17;9.10;;;5.68;;
51612;SDS011;37694;51.748;14.326;2023-06-26T09:26:43;7.43;;;5.10;;
51612;SDS011;37694;51.748;14.326;2023-06-26T09:29:09;10.90;;;6.38;;
51612;SDS011;37694;51.748;14.326;2023-06-26T09:31:38;8.85;;;5.32;;
51612;SDS011;37694;51.748;14.326;2023-06-26T09:34:05;7.80;;;5.38;;
51612;SDS011;37694;51.748;14.326;2023-06-26T09:36:31;9.10;;;5.90;;
51612;SDS011;37694;51.748;14.326;2023-06-26T09:39:01;7.55;;;5.15;;
51612;SDS011;37694;51.748;14.326;2023-06-26T09:41:27;9.82;;;5.80;;
51612;SDS011;37694;51.748;14.326;2023-06-26T09:43:53;7.55;;;5.20;;
51612;SDS011;37694;51.748;14.326;2023-06-26T09:46:26;12.05;;;5.32;;
51612;SDS011;37694;51.748;14.326;2023-06-26T09:49:14;9.88;;;6.05;;
51612;SDS011;37694;51.748;14.326;2023-06-26T09:51:40;6.65;;;5.00;;
51612;SDS011;37694;51.748;14.326;2023-06-26T09:54:07;8.30;;;5.20;;
51612;SDS011;37694;51.748;14.326;2023-06-26T09:56:34;6.90;;;4.97;;
51612;SDS011;37694;51.748;14.326;2023-06-26T09:59:01;7.75;;;5.22;;
51612;SDS011;37694;51.748;14.326;2023-06-26T10:01:29;9.82;;;5.70;;
51612;SDS011;37694;51.748;14.326;2023-06-26T10:03:56;5.97;;;4.43;;
51612;SDS011;37694;51.748;14.326;2023-06-26T10:06:28;7.75;;;4.85;;
51612;SDS011;37694;51.748;14.326;2023-06-26T10:08:59;6.00;;;4.25;;
51612;SDS011;37694;51.748;14.326;2023-06-26T10:11:29;8.05;;;5.43;;
51612;SDS011;37694;51.748;14.326;2023-06-26T10:14:20;7.25;;;5.25;;
51612;SDS011;37694;51.748;14.326;2023-06-26T10:16:48;9.68;;;4.97;;
51612;SDS011;37694;51.748;14.326;2023-06-26T10:19:16;8.00;;;4.95;;
51612;SDS011;37694;51.748;14.326;2023-06-26T10:24:16;6.82;;;4.90;;
51612;SDS011;37694;51.748;14.326;2023-06-26T10:26:44;6.90;;;4.50;;
51612;SDS011;37694;51.748;14.326;2023-06-26T10:29:11;8.52;;;5.15;;
51612;SDS011;37694;51.748;14.326;2023-06-26T10:31:40;5.90;;;4.95;;
51612;SDS011;37694;51.748;14.326;2023-06-26T10:34:10;5.75;;;4.45;;
51612;SDS011;37694;51.748;14.326;2023-06-26T10:36:36;5.55;;;4.43;;
51612;SDS011;37694;51.748;14.326;2023-06-26T10:39:05;6.18;;;4.57;;
51612;SDS011;37694;51.748;14.326;2023-06-26T10:41:38;6.28;;;4.88;;
51612;SDS011;37694;51.748;14.326;2023-06-26T10:44:09;6.07;;;4.68;;
51612;SDS011;37694;51.748;14.326;2023-06-26T10:49:18;5.57;;;4.50;;
51612;SDS011;37694;51.748;14.326;2023-06-26T10:51:48;9.60;;;4.43;;
51612;SDS011;37694;51.748;14.326;2023-06-26T10:54:15;4.32;;;3.92;;
51612;SDS011;37694;51.748;14.326;2023-06-26T10:56:42;5.88;;;4.35;;
51612;SDS011;37694;51.748;14.326;2023-06-26T11:12:36;5.03;;;4.07;;
51612;SDS011;37694;51.748;14.326;2023-06-26T11:15:02;7.60;;;4.18;;
51612;SDS011;37694;51.748;14.326;2023-06-26T11:17:30;4.18;;;3.78;;
51612;SDS011;37694;51.748;14.326;2023-06-26T11:19:56;4.28;;;3.80;;
51612;SDS011;37694;51.748;14.326;2023-06-26T11:22:22;4.82;;;3.65;;
51612;SDS011;37694;51.748;14.326;2023-06-26T11:24:51;5.40;;;3.30;;
51612;SDS011;37694;51.748;14.326;2023-06-26T11:27:18;4.75;;;4.25;;
51612;SDS011;37694;51.748;14.326;2023-06-26T11:29:47;4.13;;;3.28;;
51612;SDS011;37694;51.748;14.326;2023-06-26T11:32:16;3.95;;;3.55;;
51612;SDS011;37694;51.748;14.326;2023-06-26T11:34:42;4.40;;;3.47;;
51612;SDS011;37694;51.748;14.326;2023-06-26T11:37:08;5.78;;;4.13;;
51612;SDS011;37694;51.748;14.326;2023-06-26T11:39:34;4.30;;;3.90;;
51612;SDS011;37694;51.748;14.326;2023-06-26T11:42:00;4.00;;;3.30;;
51612;SDS011;37694;51.748;14.326;2023-06-26T11:44:30;4.38;;;3.28;;
51612;SDS011;37694;51.748;14.326;2023-06-26T11:46:56;6.22;;;4.00;;
51612;SDS011;37694;51.748;14.326;2023-06-26T11:49:23;4.72;;;3.30;;
51612;SDS011;37694;51.748;14.326;2023-06-26T11:51:50;4.07;;;3.65;;
51612;SDS011;37694;51.748;14.326;2023-06-26T11:54:22;5.70;;;4.25;;
51612;SDS011;37694;51.748;14.326;2023-06-26T11:56:57;6.03;;;3.75;;
51612;SDS011;37694;51.748;14.326;2023-06-26T11:59:24;6.95;;;3.95;;
51612;SDS011;37694;51.748;14.326;2023-06-26T12:01:57;3.70;;;3.30;;
51612;SDS011;37694;51.748;14.326;2023-06-26T12:04:23;4.53;;;2.90;;
51612;SDS011;37694;51.748;14.326;2023-06-26T12:06:50;3.28;;;2.97;;
51612;SDS011;37694;51.748;14.326;2023-06-26T12:09:20;3.72;;;2.88;;
51612;SDS011;37694;51.748;14.326;2023-06-26T12:11:47;3.65;;;3.15;;
51612;SDS011;37694;51.748;14.326;2023-06-26T12:14:16;3.35;;;3.05;;
51612;SDS011;37694;51.748;14.326;2023-06-26T12:16:44;3.08;;;2.78;;
51612;SDS011;37694;51.748;14.326;2023-06-26T12:19:10;3.05;;;2.75;;
51612;SDS011;37694;51.748;14.326;2023-06-26T12:24:09;2.15;;;2.03;;
51612;SDS011;37694;51.748;14.326;2023-06-26T12:26:38;3.05;;;2.65;;
51612;SDS011;37694;51.748;14.326;2023-06-26T12:29:06;2.83;;;2.50;;
51612;SDS011;37694;51.748;14.326;2023-06-26T12:31:33;2.70;;;2.50;;
51612;SDS011;37694;51.748;14.326;2023-06-26T12:33:59;3.25;;;2.38;;
51612;SDS011;37694;51.748;14.326;2023-06-26T12:36:26;2.75;;;2.40;;
51612;SDS011;37694;51.748;14.326;2023-06-26T12:38:54;2.45;;;2.25;;
51612;SDS011;37694;51.748;14.326;2023-06-26T12:41:23;2.40;;;2.20;;
51612;SDS011;37694;51.748;14.326;2023-06-26T12:43:49;2.45;;;2.25;;
51612;SDS011;37694;51.748;14.326;2023-06-26T12:46:20;2.35;;;2.15;;
51612;SDS011;37694;51.748;14.326;2023-06-26T12:48:57;2.58;;;2.38;;
51612;SDS011;37694;51.748;14.326;2023-06-26T12:51:23;1.80;;;1.70;;
51612;SDS011;37694;51.748;14.326;2023-06-26T12:53:51;2.10;;;2.00;;
51612;SDS011;37694;51.748;14.326;2023-06-26T12:56:17;2.35;;;2.20;;
51612;SDS011;37694;51.748;14.326;2023-06-26T12:58:43;1.77;;;1.67;;
51612;SDS011;37694;51.748;14.326;2023-06-26T13:01:09;1.80;;;1.70;;
51612;SDS011;37694;51.748;14.326;2023-06-26T13:03:39;2.58;;;2.05;;
51612;SDS011;37694;51.748;14.326;2023-06-26T13:06:06;2.25;;;2.05;;
51612;SDS011;37694;51.748;14.326;2023-06-26T13:08:33;1.92;;;1.83;;
51612;SDS011;37694;51.748;14.326;2023-06-26T13:10:59;2.38;;;2.17;;
51612;SDS011;37694;51.748;14.326;2023-06-26T13:13:25;1.58;;;1.50;;
51612;SDS011;37694;51.748;14.326;2023-06-26T13:15:51;1.90;;;1.80;;
51612;SDS011;37694;51.748;14.326;2023-06-26T13:18:16;2.97;;;2.00;;
51612;SDS011;37694;51.748;14.326;2023-06-26T13:20:42;1.73;;;1.63;;
51612;SDS011;37694;51.748;14.326;2023-06-26T13:23:08;1.90;;;1.80;;
51612;SDS011;37694;51.748;14.326;2023-06-26T13:25:33;2.17;;;1.98;;
51612;SDS011;37694;51.748;14.326;2023-06-26T13:27:59;2.10;;;1.90;;
51612;SDS011;37694;51.748;14.326;2023-06-26T13:30:25;2.15;;;2.05;;
51612;SDS011;37694;51.748;14.326;2023-06-26T13:32:50;1.92;;;1.83;;
51612;SDS011;37694;51.748;14.326;2023-06-26T13:35:16;1.80;;;1.70;;
51612;SDS011;37694;51.748;14.326;2023-06-26T13:37:43;1.88;;;1.77;;
51612;SDS011;37694;51.748;14.326;2023-06-26T13:40:08;2.20;;;2.00;;
51612;SDS011;37694;51.748;14.326;2023-06-26T13:42:34;2.00;;;1.80;;
51612;SDS011;37694;51.748;14.326;2023-06-26T13:45:01;2.03;;;1.92;;
51612;SDS011;37694;51.748;14.326;2023-06-26T13:47:28;2.10;;;2.00;;
51612;SDS011;37694;51.748;14.326;2023-06-26T13:49:54;2.00;;;1.90;;
51612;SDS011;37694;51.748;14.326;2023-06-26T13:52:20;2.03;;;1.92;;
51612;SDS011;37694;51.748;14.326;2023-06-26T13:54:45;2.67;;;2.15;;
51612;SDS011;37694;51.748;14.326;2023-06-26T13:57:11;2.50;;;1.90;;
51612;SDS011;37694;51.748;14.326;2023-06-26T13:59:38;5.90;;;2.25;;
51612;SDS011;37694;51.748;14.326;2023-06-26T14:02:07;5.30;;;2.63;;
51612;SDS011;37694;51.748;14.326;2023-06-26T14:04:33;6.47;;;3.30;;
51612;SDS011;37694;51.748;14.326;2023-06-26T14:06:59;7.57;;;3.45;;
51612;SDS011;37694;51.748;14.326;2023-06-26T14:09:24;12.63;;;3.97;;
51612;SDS011;37694;51.748;14.326;2023-06-26T14:11:50;10.48;;;4.07;;
51612;SDS011;37694;51.748;14.326;2023-06-26T14:14:16;10.43;;;2.92;;
51612;SDS011;37694;51.748;14.326;2023-06-26T14:16:42;14.27;;;3.70;;
51612;SDS011;37694;51.748;14.326;2023-06-26T14:19:07;4.05;;;3.00;;
51612;SDS011;37694;51.748;14.326;2023-06-26T14:21:40;5.25;;;2.67;;
51612;SDS011;37694;51.748;14.326;2023-06-26T14:24:06;10.55;;;3.08;;
51612;SDS011;37694;51.748;14.326;2023-06-26T14:26:32;6.47;;;3.15;;
51612;SDS011;37694;51.748;14.326;2023-06-26T14:28:58;7.07;;;3.15;;
51612;SDS011;37694;51.748;14.326;2023-06-26T14:31:25;3.63;;;3.20;;
51612;SDS011;37694;51.748;14.326;2023-06-26T14:33:50;4.88;;;3.08;;
51612;SDS011;37694;51.748;14.326;2023-06-26T14:36:16;7.05;;;2.92;;
51612;SDS011;37694;51.748;14.326;2023-06-26T14:38:42;7.68;;;3.20;;
51612;SDS011;37694;51.748;14.326;2023-06-26T14:41:07;3.50;;;3.00;;
51612;SDS011;37694;51.748;14.326;2023-06-26T14:43:33;8.95;;;3.60;;
51612;SDS011;37694;51.748;14.326;2023-06-26T14:45:59;6.13;;;3.30;;
51612;SDS011;37694;51.748;14.326;2023-06-26T14:48:24;3.17;;;2.85;;
51612;SDS011;37694;51.748;14.326;2023-06-26T14:50:50;9.63;;;3.20;;
51612;SDS011;37694;51.748;14.326;2023-06-26T14:53:16;5.57;;;3.42;;
51612;SDS011;37694;51.748;14.326;2023-06-26T14:55:42;9.95;;;3.53;;
51612;SDS011;37694;51.748;14.326;2023-06-26T14:58:08;9.13;;;2.90;;